Time;durP1;ratioP1;P1;durP2;ratioP2;P2;SDS_P1;SDS_P2;PMS_P1;PMS_P2;Temp;Humidity;BMP_temperature;BMP_pressure;BME280_temperature;BME280_humidity;BME280_pressure;Samples;Min_cycle;Max_cycle;Signal;HPM_P1;HPM_P2
2022/05/13 07:44:52;;;;;;;;;3.00;2.00;;;;;20.46;42.18;102040.91;5072616;27;45804;-74
2022/05/13 07:47:19;;;;;;;;;3.33;1.00;;;;;20.60;42.20;102049.78;5066584;27;45770;-72
2022/05/13 07:49:45;;;;;;;;;1.67;1.67;;;;;20.79;41.60;102066.28;5067621;28;45759;-74
2022/05/13 07:52:11;;;;;;;;;5.00;1.67;;;;;20.99;41.66;102060.34;5067941;28;45802;-74
2022/05/13 07:54:37;;;;;;;;;2.67;1.00;;;;;21.24;40.61;102055.69;5069964;28;45486;-75
2022/05/13 07:57:03;;;;;;;;;0.67;0.67;;;;;21.45;40.46;102048.59;5066640;27;45363;-75
2022/05/13 07:59:31;;;;;;;;;1.00;1.00;;;;;21.71;39.64;102059.19;5065778;28;45510;-73
2022/05/13 08:01:56;;;;;;;;;1.67;1.67;;;;;21.94;39.21;102048.34;5062264;28;45621;-75
2022/05/13 08:04:21;;;;;;;;;1.00;1.00;;;;;22.14;39.44;102042.28;5056046;27;47158;-74
2022/05/13 08:06:47;;;;;;;;;2.00;0.67;;;;;22.37;39.32;102054.72;5065540;27;45789;-73
2022/05/13 08:09:12;;;;;;;;;2.33;2.33;;;;;22.59;39.25;102044.81;5068517;28;45356;-76
2022/05/13 08:11:38;;;;;;;;;3.67;2.67;;;;;22.82;38.73;102049.25;5066668;28;45469;-76
2022/05/13 08:14:04;;;;;;;;;2.33;1.00;;;;;23.01;38.29;102046.66;5066025;27;45498;-76
2022/05/13 08:16:29;;;;;;;;;1.00;1.00;;;;;23.16;38.31;102057.16;5065559;28;45557;-75
2022/05/13 08:18:59;;;;;;;;;1.00;1.00;;;;;23.21;38.02;102038.63;5063753;27;45718;-75
2022/05/13 08:21:25;;;;;;;;;4.00;2.00;;;;;23.48;37.80;102058.91;5066516;27;45925;-74
2022/05/13 08:23:51;;;;;;;;;1.00;1.00;;;;;23.65;37.49;102048.41;5065970;27;45453;-74
2022/05/13 08:26:17;;;;;;;;;1.33;1.33;;;;;23.83;37.56;102045.91;5064576;27;45419;-74
2022/05/13 08:28:43;;;;;;;;;4.33;1.67;;;;;24.01;37.46;102050.63;5066765;28;45484;-74
2022/05/13 08:31:09;;;;;;;;;4.00;0.00;;;;;24.15;37.33;102042.09;5063509;28;45404;-74
2022/05/13 08:33:35;;;;;;;;;1.33;1.00;;;;;24.30;37.42;102047.13;5068621;27;46096;-75
2022/05/13 08:36:03;;;;;;;;;1.67;1.67;;;;;24.45;37.47;102044.84;5064249;27;45396;-73
2022/05/13 08:38:32;;;;;;;;;1.33;1.00;;;;;24.56;36.99;102039.25;5063705;27;45656;-74
2022/05/13 08:41:09;;;;;;;;;0.00;0.00;;;;;24.71;36.85;102042.38;5067972;27;45479;-74
2022/05/13 08:43:45;;;;;;;;;1.00;1.00;;;;;24.82;36.67;102035.94;5071199;27;45589;-74
2022/05/13 08:46:16;;;;;;;;;2.00;1.00;;;;;24.93;36.45;102044.97;5088405;27;45530;-74
2022/05/13 08:49:04;;;;;;;;;1.00;1.00;;;;;25.03;35.97;102044.91;5086905;27;45555;-71
2022/05/13 08:51:46;;;;;;;;;1.00;1.00;;;;;25.12;36.10;102050.34;5089496;27;45323;-73
2022/05/13 08:54:18;;;;;;;;;2.33;1.00;;;;;25.22;35.92;102047.56;5087319;27;45462;-73
2022/05/13 08:56:48;;;;;;;;;1.00;1.00;;;;;25.28;36.22;102037.97;5073467;28;45484;-73
2022/05/13 08:59:25;;;;;;;;;2.00;1.00;;;;;25.39;36.25;102045.09;5073853;28;46748;-73
2022/05/13 09:02:16;;;;;;;;;0.00;0.00;;;;;25.45;35.98;102040.88;5073388;28;45650;-73
2022/05/13 09:04:59;;;;;;;;;2.00;0.67;;;;;25.55;35.90;102049.91;5071038;28;46143;-73
2022/05/13 09:07:25;;;;;;;;;1.00;1.00;;;;;25.62;35.52;102050.13;5069363;28;45391;-73
2022/05/13 09:09:55;;;;;;;;;1.00;1.00;;;;;25.68;35.72;102049.56;5073684;28;45513;-74
2022/05/13 09:12:29;;;;;;;;;1.00;1.00;;;;;25.73;35.78;102041.78;5069188;28;45377;-73
2022/05/13 09:15:09;;;;;;;;;1.00;1.00;;;;;25.79;35.75;102051.22;5072559;28;45566;-72
2022/05/13 09:18:00;;;;;;;;;1.00;1.00;;;;;25.83;35.44;102044.44;5069095;28;45607;-73
2022/05/13 09:20:26;;;;;;;;;1.33;0.67;;;;;25.87;33.69;102036.84;5065561;28;47941;-74
2022/05/13 09:22:58;;;;;;;;;1.00;1.00;;;;;25.85;31.93;102028.84;5068010;28;45463;-75
2022/05/13 09:25:32;;;;;;;;;0.00;0.00;;;;;25.91;32.18;102040.94;5069799;28;46891;-73
2022/05/13 09:28:00;;;;;;;;;1.00;1.00;;;;;25.89;32.85;102051.13;5056123;28;45432;-73
2022/05/13 09:30:35;;;;;;;;;0.00;0.00;;;;;25.81;32.71;102032.88;5074633;28;45414;-73
2022/05/13 09:33:24;;;;;;;;;0.33;0.33;;;;;25.91;33.11;102040.94;5073341;28;45561;-72
2022/05/13 09:35:55;;;;;;;;;1.00;1.00;;;;;25.92;32.98;102045.41;5070191;27;45616;-72
2022/05/13 09:38:30;;;;;;;;;0.00;0.00;;;;;25.96;33.52;102043.22;5068214;28;45332;-72
2022/05/13 09:41:26;;;;;;;;;1.00;1.00;;;;;25.99;33.44;102034.78;5070315;28;45729;-73
2022/05/13 09:43:54;;;;;;;;;0.00;0.00;;;;;26.04;33.56;102038.72;5067228;28;51303;-73
2022/05/13 09:46:34;;;;;;;;;0.00;0.00;;;;;26.09;32.95;102037.41;5072744;28;46284;-77
2022/05/13 09:49:19;;;;;;;;;6.00;4.67;;;;;26.13;32.39;102038.81;5073600;28;45460;-77
2022/05/13 09:52:15;;;;;;;;;2.67;2.00;;;;;26.15;31.83;102034.91;5073461;28;45528;-77
2022/05/13 09:54:43;;;;;;;;;1.33;1.33;;;;;26.16;31.51;102033.91;5071620;28;45575;-77
2022/05/13 09:57:29;;;;;;;;;0.33;0.00;;;;;26.16;31.49;102030.34;5075419;28;45540;-77
2022/05/13 10:00:00;;;;;;;;;1.00;1.00;;;;;26.17;31.34;102040.22;5072955;28;45790;-77
2022/05/13 10:02:28;;;;;;;;;1.00;1.00;;;;;26.16;31.59;102028.47;5071210;27;45431;-76
2022/05/13 10:05:15;;;;;;;;;1.00;0.67;;;;;26.15;31.56;102020.44;5073523;28;45676;-76
2022/05/13 10:07:49;;;;;;;;;1.00;1.00;;;;;26.14;31.58;102022.34;5070337;28;45642;-76
2022/05/13 10:16:00;;;;;;;;;0.67;0.67;;;;;26.11;31.42;102022.63;5071760;28;45474;-76
2022/05/13 10:18:27;;;;;;;;;2.00;1.00;;;;;26.13;31.50;102019.75;5075172;28;46458;-76
2022/05/13 10:20:58;;;;;;;;;2.00;1.00;;;;;26.10;31.34;102020.94;5072781;28;45417;-75
2022/05/13 10:23:33;;;;;;;;;1.00;1.00;;;;;26.12;30.86;102021.63;5071887;28;45451;-77
2022/05/13 10:26:22;;;;;;;;;1.67;1.67;;;;;26.12;31.05;102020.78;5071479;28;45583;-76
2022/05/13 10:29:22;;;;;;;;;1.00;1.00;;;;;26.12;31.30;102027.06;5061631;28;48625;-76
2022/05/13 10:31:50;;;;;;;;;1.00;1.00;;;;;26.13;31.15;102017.91;5006479;28;45635;-76
2022/05/13 10:34:38;;;;;;;;;2.00;0.00;;;;;26.07;31.21;102013.06;5010239;28;45553;-76
2022/05/13 10:37:29;;;;;;;;;0.00;0.00;;;;;26.12;31.22;102021.63;5007853;28;45665;-75
2022/05/13 10:40:01;;;;;;;;;4.00;2.00;;;;;26.10;31.25;102014.63;5006811;28;45500;-75
2022/05/13 10:43:05;;;;;;;;;1.00;1.00;;;;;26.15;31.13;102002.25;5010403;28;46000;-75
2022/05/13 10:45:33;;;;;;;;;2.00;2.00;;;;;26.14;31.29;102006.00;5008215;28;45962;-75
2022/05/13 10:48:27;;;;;;;;;2.00;2.00;;;;;26.16;30.75;102009.41;5009875;28;45512;-74
2022/05/13 10:51:14;;;;;;;;;1.00;1.00;;;;;26.09;31.24;101997.47;5005100;28;46131;-73
2022/05/13 10:54:26;;;;;;;;;1.00;1.00;;;;;26.08;31.06;101986.72;5009993;28;45481;-74
2022/05/13 10:57:20;;;;;;;;;1.33;1.33;;;;;26.15;31.42;102001.41;4950717;28;45834;-73
2022/05/13 11:00:09;;;;;;;;;3.67;2.00;;;;;26.17;30.85;102000.22;4950196;28;45598;-73
2022/05/13 11:02:53;;;;;;;;;1.33;1.33;;;;;26.20;31.33;101998.22;4952964;28;46070;-74
2022/05/13 11:05:33;;;;;;;;;1.33;0.33;;;;;26.20;31.54;101992.78;4951069;28;45520;-73
2022/05/13 11:08:26;;;;;;;;;1.00;1.00;;;;;26.22;30.91;101996.19;4994452;28;45680;-73
2022/05/13 11:11:16;;;;;;;;;1.00;1.00;;;;;26.22;30.82;101994.34;4996758;28;45643;-73
2022/05/13 11:14:10;;;;;;;;;2.00;2.00;;;;;26.22;30.94;102001.63;5008812;28;46650;-73
2022/05/13 11:16:44;;;;;;;;;2.00;0.67;;;;;26.22;30.99;101997.06;5005323;28;47602;-73
2022/05/13 11:19:30;;;;;;;;;1.33;1.33;;;;;26.22;30.87;101988.91;5006162;28;45681;-74
2022/05/13 11:22:27;;;;;;;;;1.33;0.67;;;;;26.23;31.10;101989.75;5004444;28;45645;-73
2022/05/13 11:27:58;;;;;;;;;0.67;0.67;;;;;26.24;31.30;101986.03;5002320;28;45724;-74
2022/05/13 11:30:40;;;;;;;;;2.00;2.00;;;;;26.24;30.89;101988.75;5010839;28;45420;-74
2022/05/13 11:33:17;;;;;;;;;1.00;1.00;;;;;26.26;30.86;101989.47;5034511;28;45464;-74
2022/05/13 11:36:06;;;;;;;;;1.67;1.00;;;;;26.23;31.11;101979.72;5067881;28;46249;-74
2022/05/13 11:38:31;;;;;;;;;1.67;1.67;;;;;26.30;30.69;101988.13;5066506;28;45360;-74
2022/05/13 11:41:08;;;;;;;;;2.00;1.00;;;;;26.33;31.28;101985.13;5071756;28;45523;-75
2022/05/13 11:43:59;;;;;;;;;1.00;1.00;;;;;26.36;31.07;101978.50;5068898;28;45286;-74
2022/05/13 11:46:51;;;;;;;;;1.33;1.33;;;;;26.39;31.11;101972.72;5066194;28;45420;-75
2022/05/13 11:49:21;;;;;;;;;1.00;1.00;;;;;26.40;30.46;101971.72;5063630;28;49377;-74
2022/05/13 11:51:46;;;;;;;;;2.00;2.00;;;;;26.36;30.91;101971.16;5057610;28;45352;-75
2022/05/13 11:54:24;;;;;;;;;2.00;2.00;;;;;26.38;31.46;101974.59;5063812;28;45549;-74
2022/05/13 11:57:18;;;;;;;;;1.00;1.00;;;;;26.42;31.26;101976.00;5071719;28;46204;-74
2022/05/13 11:59:45;;;;;;;;;3.00;1.00;;;;;26.41;31.17;101971.53;5065435;28;45510;-75
2022/05/13 12:02:33;;;;;;;;;2.00;2.00;;;;;26.45;30.84;101963.94;5072309;28;45497;-74
2022/05/13 12:05:18;;;;;;;;;2.00;2.00;;;;;26.44;30.77;101960.34;5069132;28;45503;-79
2022/05/13 12:07:55;;;;;;;;;0.67;0.67;;;;;26.46;31.26;101967.50;5067156;27;45544;-75
2022/05/13 12:10:45;;;;;;;;;1.00;1.00;;;;;26.42;31.13;101962.38;5059192;28;46013;-75
2022/05/13 12:13:42;;;;;;;;;5.33;2.67;;;;;26.39;31.35;101965.41;5067425;27;45798;-72
2022/05/13 12:16:32;;;;;;;;;2.00;2.00;;;;;26.36;31.61;101954.00;5068582;28;45587;-73
2022/05/13 12:19:25;;;;;;;;;2.00;2.00;;;;;26.35;31.68;101949.56;5069661;28;45513;-74
2022/05/13 14:55:43;;;;;;;;;1.33;1.33;;;;;21.64;40.73;101844.50;5059813;27;45514;-73
2022/05/13 14:58:20;;;;;;;;;4.00;2.00;;;;;21.81;40.54;101836.81;5011291;28;45645;-74
2022/05/13 15:00:47;;;;;;;;;3.00;3.00;;;;;22.02;40.35;101836.84;5035703;28;45519;-74
2022/05/13 15:03:19;;;;;;;;;2.00;2.00;;;;;22.28;40.62;101847.25;5023042;28;45395;-74
2022/05/13 15:05:46;;;;;;;;;2.00;2.00;;;;;22.54;40.19;101836.03;5021511;28;46169;-74
2022/05/13 15:08:50;;;;;;;;;1.67;1.67;;;;;22.89;40.02;101839.28;5013326;28;45549;-74
2022/05/13 15:11:19;;;;;;;;;4.33;3.33;;;;;23.23;39.44;101835.38;5023064;28;45458;-74
2022/05/13 15:13:46;;;;;;;;;1.00;1.00;;;;;23.50;38.97;101833.88;5024759;28;45680;-74
2022/05/13 15:16:13;;;;;;;;;3.67;2.67;;;;;23.77;38.57;101840.41;5027448;28;46079;-73
2022/05/13 15:18:41;;;;;;;;;2.67;1.33;;;;;23.99;38.45;101833.81;5020386;28;45526;-74
2022/05/13 15:21:07;;;;;;;;;2.00;1.00;;;;;24.23;38.09;101832.50;5015947;28;45385;-75
2022/05/13 15:23:34;;;;;;;;;2.00;2.00;;;;;24.37;38.07;101814.06;5021233;28;45634;-79
2022/05/13 15:26:00;;;;;;;;;4.33;2.00;;;;;24.60;37.78;101818.13;5018227;28;45793;-73
2022/05/13 15:28:26;;;;;;;;;2.67;2.33;;;;;24.79;37.39;101832.59;5021198;28;45467;-73
2022/05/13 15:30:55;;;;;;;;;3.33;3.33;;;;;24.93;37.31;101827.72;5027757;28;45598;-74
2022/05/13 15:33:22;;;;;;;;;4.33;2.33;;;;;24.97;37.45;101810.94;5027859;28;46022;-73
2022/05/13 15:35:47;;;;;;;;;3.00;3.00;;;;;25.17;37.28;101818.97;5019197;28;46222;-73
2022/05/13 15:38:12;;;;;;;;;8.00;3.33;;;;;25.33;36.75;101809.25;5017154;28;45313;-73
2022/05/13 15:40:38;;;;;;;;;2.00;2.00;;;;;25.42;36.66;101816.47;5025561;28;45444;-72
2022/05/13 15:43:05;;;;;;;;;5.67;3.00;;;;;25.53;36.45;101818.13;5022222;28;45675;-73
2022/05/13 15:45:33;;;;;;;;;7.00;4.00;;;;;25.63;36.16;101824.34;5027951;28;46744;-73
2022/05/13 15:48:00;;;;;;;;;3.00;3.00;;;;;25.72;36.16;101821.69;5024750;28;45459;-74
2022/05/13 15:53:10;;;;;;;;;1.00;1.00;;;;;25.88;35.83;101813.66;5023320;28;45318;-73
2022/05/13 15:55:40;;;;;;;;;3.67;2.00;;;;;25.96;35.73;101818.34;5024836;28;45413;-73
2022/05/13 15:58:31;;;;;;;;;7.00;2.67;;;;;26.04;35.70;101826.53;5027397;28;45495;-73
2022/05/13 16:00:56;;;;;;;;;3.67;2.33;;;;;26.10;35.67;101827.75;5029561;28;45793;-71
2022/05/13 16:03:22;;;;;;;;;3.00;2.00;;;;;26.15;35.54;101824.56;5026487;28;46183;-73
2022/05/13 16:05:48;;;;;;;;;2.00;2.00;;;;;26.16;35.85;101815.41;5007269;28;45752;-73
2022/05/13 16:08:14;;;;;;;;;2.33;1.00;;;;;26.22;35.49;101825.63;5009916;28;45415;-73
2022/05/13 16:10:40;;;;;;;;;2.00;2.00;;;;;26.25;35.61;101822.63;5013381;28;45471;-74
2022/05/13 16:13:13;;;;;;;;;1.00;1.00;;;;;26.30;35.09;101816.69;5010148;28;45767;-74
2022/05/13 16:15:43;;;;;;;;;4.00;2.00;;;;;26.33;35.24;101821.81;5010033;28;45413;-74
2022/05/13 16:18:12;;;;;;;;;5.67;3.00;;;;;26.38;35.09;101834.94;5012003;28;45762;-73
2022/05/13 16:20:39;;;;;;;;;4.00;2.00;;;;;26.37;36.25;101819.63;5009147;28;45464;-73
2022/05/13 16:23:06;;;;;;;;;8.00;4.67;;;;;26.34;35.99;101817.22;5011615;28;45613;-74
2022/05/13 16:25:31;;;;;;;;;4.00;2.00;;;;;26.35;35.64;101816.22;5010776;28;46442;-74
2022/05/13 16:28:01;;;;;;;;;1.33;1.33;;;;;26.37;35.38;101825.94;5012090;28;45639;-74
2022/05/13 16:30:27;;;;;;;;;3.00;1.33;;;;;26.34;35.51;101809.91;5013701;28;45462;-74
2022/05/13 16:32:53;;;;;;;;;2.67;2.67;;;;;26.39;35.25;101815.72;5009294;28;50972;-73
2022/05/13 16:35:18;;;;;;;;;1.00;1.00;;;;;26.42;35.17;101814.53;5012314;28;45738;-74
2022/05/13 16:37:44;;;;;;;;;4.00;2.00;;;;;26.46;34.98;101817.78;5014018;28;45471;-76
2022/05/13 16:40:15;;;;;;;;;7.33;2.00;;;;;26.48;35.20;101810.31;5012116;28;45619;-76
2022/05/13 16:42:41;;;;;;;;;2.67;2.00;;;;;26.52;35.05;101819.88;5013025;28;45376;-75
2022/05/13 16:45:08;;;;;;;;;3.67;1.67;;;;;26.55;35.20;101819.53;5012597;28;46360;-76
2022/05/13 16:47:34;;;;;;;;;2.00;1.67;;;;;26.49;35.23;101807.44;5014166;28;45364;-74
2022/05/13 16:49:59;;;;;;;;;1.00;1.00;;;;;26.54;35.12;101805.09;5010742;28;46723;-74
2022/05/13 16:52:25;;;;;;;;;3.67;2.00;;;;;26.65;35.18;101816.69;5012961;28;45388;-75
2022/05/13 16:54:55;;;;;;;;;3.00;2.00;;;;;26.64;35.06;101813.09;5005770;28;45535;-74
2022/05/13 16:57:20;;;;;;;;;2.33;2.00;;;;;26.63;35.41;101814.13;5005419;28;45460;-73
2022/05/13 16:59:45;;;;;;;;;3.00;1.33;;;;;26.66;34.99;101816.53;5004166;28;45459;-75
2022/05/13 17:02:11;;;;;;;;;3.00;3.00;;;;;26.67;35.40;101823.69;5012493;28;45559;-74
2022/05/13 17:04:36;;;;;;;;;1.00;1.00;;;;;26.70;34.64;101825.22;5013616;28;46166;-74
2022/05/13 17:07:01;;;;;;;;;5.33;1.67;;;;;26.73;34.79;101826.75;5010930;28;48944;-74
